Dublin, IN (47335)

9:37 AM EST on February 08, 2016 (GMT -0500)
Fairholme Farms | | Change Station
CLOSE
Current Station
Personal Weather Station
Location: Lewisville, IN
Elevation: 1050 ft
Nearby Weather Stations
Active Advisory: Special Statement

Elev 1050 ft 39.79 °N, 85.35 °W | Updated 7 minutes ago

Snow
Snow
32.8 °F
Feels Like 33 °F
N
1.0
Wind Variable Wind from WSW
Gusts 3.0 mph

Today
High -- | Low -- °F
--% Chance of Precip.
Yesterday
High -- | Low -- °F
Precip. -- in
Pressure 29.65 in
Visibility 3.0 miles
Clouds Mostly Cloudy 500 ft
Overcast 2400 ft
Windchill 33 °F
Dew Point 32 °F
Humidity 96%
Rainfall 0.00 in
Snow Depth Not available.
7:42 AM 6:08 PM
Waning Crescent, 0% visible
SPECI KMIE 081422Z 28003KT 3SM -SN BR BKN005 OVC024 01/M01 A2965 RMK AO2 P0000 T00111006
Pressure 29.65 in
Visibility 3.0 miles
Clouds Mostly Cloudy 500 ft
Overcast 2400 ft
Windchill 33 °F
Dew Point 32 °F
Humidity 96%
Rainfall 0.00 in
Snow Depth Not available.
7:42 AM 6:08 PM
Waning Crescent, 0% visible
SPECI KMIE 081422Z 28003KT 3SM -SN BR BKN005 OVC024 01/M01 A2965 RMK AO2 P0000 T00111006

10-Day Weather Forecast

Almanac

Astronomy

Feb. 08, 2016 Rise Set
Actual Time
Civil Twilight
Nautical Twilight
Astronomical Twilight
Moon
Length of Visible Light
Length of Day
Tomorrow will be .
, % of the Moon is Illuminated

Today's Extremes

State Highs State Lows

Community

WunderPhotos

Upload Photos

1,891,437 photos uploaded!

WunderBlog® & News

Nearby

Air Quality

  Air Quality AQ Index Pollutant
Not available.

Snow Depth

Station Depth Elevation

Earthquake Activity

City Distance Mag. Time & Date
Minimum magnitude displayed is 2.5.

Coastal Water Temperatures

Place Temperature

Stations

Nearby Weather Stations

Station Location Temp. Windchill Dew Point Humidity Wind Precip. Elev Updated Type
                   

Watches & Warnings

Special Statement
Issued: 4:39 AM EST Feb. 8, 2016 – National Weather Service

... Accumulating snow likely tonight...

Rain showers this morning and afternoon will transition over to
snow showers this evening. Occasional snow showers will then
continue tonight through Tuesday night. Snow accumulations of 1 to
3 inches are expected over a 36 hour period tonight through
Tuesday night. Travel difficulties are possible due to reduced
visibilities and some slick spots on highways.